KAMA

Rick Husband Amarillo International Airport

Amarillo, Texas, USA
METAR KAMA 170253Z 13003KT 10SM -RA FEW055 OVC085 10/04 A3036 RMK AO2 RAB41 SLP270 P0000 60000 T01000039 53016
Observed Flight Rules
Oct-17 @ 02:53 UTC (16 minutes ago) Visual Flight Rules
Wind Visibility Clouds Conditions
130° at 3 knots 10 miles
  • Few at 5,500' AGL
  • Overcast at 8,500' AGL
  • Light Rain
Temperatures Readings Precipitation
Current 10°C / 50°F
Dewpoint 4°C / 39°F
Humidity 67%
Altimeter 30.36" Hg
Pressure 1027 hPa
Elevation 1093
Current Rain 0.005
METAR KAMA 170253Z 13003KT 10SM -RA FEW055 OVC085 10/04 A3036 RMK AO2 RAB41 SLP270 P0000 60000 T01000039 53016
Observed Flight Rules
Oct-17 @ 02:53 UTC
(16 minutes ago)
VFR
Wind Visibility
130° at 3 knots 10 miles
Clouds
  • Few at 5,500' AGL
  • Overcast at 8,500' AGL
Conditions
  • Light Rain
Temperature Dewpoint
10°C / 50°F 4°C / 39°F
Humidity Altimeter Pressure
67% 30.36" Hg 1027 hPa
Current Rain
0.005